createdAt,value
2023-01-29T00:00:22.522Z,26.71
2023-01-29T00:00:54.920Z,26.71
2023-01-29T00:01:27.360Z,26.84
2023-01-29T00:01:59.818Z,26.77
2023-01-29T00:02:32.580Z,26.79
2023-01-29T00:03:05.700Z,26.75
2023-01-29T00:03:38.188Z,26.69
2023-01-29T00:04:10.799Z,26.65
2023-01-29T00:04:43.230Z,26.78
2023-01-29T00:05:26.558Z,26.78
2023-01-29T00:06:00.416Z,26.68
2023-01-29T00:06:33.119Z,26.69
2023-01-29T00:07:05.518Z,26.71
2023-01-29T00:07:37.913Z,26.70
2023-01-29T00:08:10.303Z,26.88
2023-01-29T00:08:42.715Z,26.89
2023-01-29T00:09:15.638Z,27.00
2023-01-29T00:09:48.040Z,26.88
2023-01-29T00:10:20.457Z,26.71
2023-01-29T00:10:53.063Z,26.71
2023-01-29T00:11:25.654Z,26.77
2023-01-29T00:11:58.044Z,26.78
2023-01-29T00:12:30.415Z,26.72
2023-01-29T00:13:02.775Z,26.70
2023-01-29T00:13:35.549Z,26.87
2023-01-29T00:14:08.182Z,26.77
2023-01-29T00:14:40.607Z,26.71
2023-01-29T00:15:13.001Z,26.79
2023-01-29T00:15:55.833Z,26.74
2023-01-29T00:16:28.370Z,26.68
2023-01-29T00:17:00.892Z,26.66
2023-01-29T00:17:33.551Z,26.69
2023-01-29T00:18:06.180Z,26.70
2023-01-29T00:18:42.200Z,26.76
2023-01-29T00:19:14.572Z,26.71
2023-01-29T00:19:47.080Z,26.60
2023-01-29T00:20:19.789Z,26.63
2023-01-29T00:20:52.619Z,26.71
2023-01-29T00:21:25.076Z,26.73
2023-01-29T00:21:57.465Z,26.65
2023-01-29T00:22:31.267Z,26.68
2023-01-29T00:23:03.671Z,26.77
2023-01-29T00:23:36.066Z,26.68
2023-01-29T00:24:08.617Z,26.82
2023-01-29T00:24:41.008Z,26.72
2023-01-29T00:25:13.396Z,26.77
2023-01-29T00:25:46.556Z,26.73
2023-01-29T00:26:18.943Z,26.78
2023-01-29T00:26:51.314Z,26.74
2023-01-29T00:27:23.683Z,26.72
2023-01-29T00:27:56.411Z,26.71
2023-01-29T00:28:28.813Z,26.75
2023-01-29T00:29:02.130Z,26.65
2023-01-29T00:29:34.561Z,26.71
2023-01-29T00:30:14.443Z,26.65
2023-01-29T00:30:47.124Z,26.63
2023-01-29T00:31:22.529Z,26.63
2023-01-29T00:31:55.046Z,26.70
2023-01-29T00:32:27.605Z,26.66
2023-01-29T00:33:00.048Z,26.71
2023-01-29T00:33:32.497Z,26.61
2023-01-29T00:34:04.919Z,26.59
2023-01-29T00:34:37.304Z,26.59
2023-01-29T00:35:10.269Z,26.58
2023-01-29T00:35:42.734Z,26.60
2023-01-29T00:36:16.839Z,26.64
2023-01-29T00:36:49.236Z,26.69
2023-01-29T00:37:21.615Z,26.66
2023-01-29T00:37:56.165Z,26.62
2023-01-29T00:38:28.565Z,26.66
2023-01-29T00:39:02.759Z,26.74
2023-01-29T00:39:47.334Z,26.73
2023-01-29T00:40:20.780Z,26.82
2023-01-29T00:41:11.888Z,26.73
2023-01-29T00:42:03.169Z,26.80
2023-01-29T00:42:54.333Z,26.73
2023-01-29T00:43:45.845Z,26.67
2023-01-29T00:44:37.652Z,26.53
2023-01-29T00:45:11.261Z,26.67
2023-01-29T00:45:43.634Z,26.67
2023-01-29T00:46:16.036Z,26.59
2023-01-29T00:46:48.470Z,26.62
2023-01-29T00:47:35.992Z,26.59
2023-01-29T00:48:08.351Z,26.64
2023-01-29T00:48:40.738Z,26.66
2023-01-29T00:49:13.590Z,26.59
2023-01-29T00:49:45.962Z,26.57
2023-01-29T00:50:18.787Z,26.63
2023-01-29T00:50:51.332Z,26.61
2023-01-29T00:51:23.705Z,26.58
2023-01-29T00:52:14.907Z,26.64
2023-01-29T00:52:48.713Z,26.55
2023-01-29T00:53:21.107Z,26.60
2023-01-29T00:53:54.561Z,26.65
2023-01-29T00:54:26.931Z,26.68
2023-01-29T00:55:00.931Z,26.60
2023-01-29T00:55:33.329Z,26.69
2023-01-29T00:56:06.100Z,26.64
2023-01-29T00:56:38.536Z,26.71
2023-01-29T00:57:10.953Z,26.67
2023-01-29T00:57:43.383Z,26.59
2023-01-29T00:58:22.231Z,26.54
2023-01-29T00:58:55.004Z,26.59
2023-01-29T00:59:27.437Z,26.61
2023-01-29T00:59:59.854Z,26.52
2023-01-29T01:00:32.275Z,26.55
2023-01-29T01:01:04.745Z,26.59
2023-01-29T01:01:55.693Z,26.65
2023-01-29T01:02:47.645Z,26.61
2023-01-29T01:03:20.148Z,26.49
2023-01-29T01:03:52.531Z,26.55
2023-01-29T01:04:24.932Z,26.53
2023-01-29T01:04:57.378Z,26.60
2023-01-29T01:05:30.123Z,26.57
2023-01-29T01:06:06.809Z,26.50
2023-01-29T01:06:40.266Z,26.55
2023-01-29T01:07:45.208Z,26.57
2023-01-29T01:08:36.445Z,26.57
2023-01-29T01:09:29.036Z,26.56
2023-01-29T01:10:20.251Z,26.70
2023-01-29T01:11:00.196Z,26.63
2023-01-29T01:11:34.620Z,26.76
2023-01-29T01:12:07.228Z,26.72
2023-01-29T01:12:39.619Z,26.53
2023-01-29T01:13:12.618Z,26.63
2023-01-29T01:13:45.024Z,26.70
2023-01-29T01:14:17.418Z,26.61
2023-01-29T01:14:50.072Z,26.61
2023-01-29T01:15:24.362Z,26.58
2023-01-29T01:15:56.793Z,26.60
2023-01-29T01:16:29.258Z,26.51
2023-01-29T01:17:01.650Z,26.57
2023-01-29T01:17:34.296Z,26.50
2023-01-29T01:18:06.766Z,26.52
2023-01-29T01:18:39.547Z,26.54
2023-01-29T01:19:12.676Z,26.54
2023-01-29T01:19:45.268Z,26.57
2023-01-29T01:20:17.964Z,26.43
2023-01-29T01:20:51.723Z,26.48
2023-01-29T01:21:24.111Z,26.52
2023-01-29T01:21:56.476Z,26.49
2023-01-29T01:22:28.855Z,26.54
2023-01-29T01:23:01.275Z,26.53
2023-01-29T01:23:34.211Z,26.56
2023-01-29T01:24:06.933Z,26.56
2023-01-29T01:24:39.725Z,26.50
2023-01-29T01:25:12.140Z,26.58
2023-01-29T01:25:44.539Z,26.55
2023-01-29T01:26:16.979Z,26.56
2023-01-29T01:26:49.454Z,26.61
2023-01-29T01:27:21.895Z,26.73
2023-01-29T01:27:55.967Z,26.57
2023-01-29T01:28:29.051Z,26.56
2023-01-29T01:29:01.444Z,26.72
2023-01-29T01:29:33.873Z,26.60
2023-01-29T01:30:06.779Z,26.59
2023-01-29T01:30:39.212Z,26.56
2023-01-29T01:31:13.388Z,26.53
2023-01-29T01:31:45.967Z,26.64
2023-01-29T01:32:18.421Z,26.55
2023-01-29T01:32:51.214Z,26.58
2023-01-29T01:33:23.623Z,26.63
2023-01-29T01:33:56.136Z,26.50
2023-01-29T01:34:28.753Z,26.55
2023-01-29T01:35:01.149Z,26.59
2023-01-29T01:35:33.628Z,26.49
2023-01-29T01:36:10.122Z,26.50
2023-01-29T01:36:42.569Z,26.54
2023-01-29T01:37:15.049Z,26.45
2023-01-29T01:37:47.435Z,26.52
2023-01-29T01:38:19.802Z,26.47
2023-01-29T01:38:52.300Z,26.51
2023-01-29T01:39:25.699Z,26.50
2023-01-29T01:39:58.646Z,26.49
2023-01-29T01:40:31.295Z,26.49
2023-01-29T01:41:03.683Z,26.52
2023-01-29T01:41:36.166Z,26.50
2023-01-29T01:42:14.715Z,26.61
2023-01-29T01:42:55.874Z,26.70
2023-01-29T01:43:28.279Z,26.59
2023-01-29T01:44:06.311Z,26.49
2023-01-29T01:44:53.979Z,26.65
2023-01-29T01:45:32.719Z,26.45
2023-01-29T01:46:05.251Z,26.51
2023-01-29T01:46:38.815Z,26.60
2023-01-29T01:47:11.243Z,26.64
2023-01-29T01:47:50.259Z,26.53
2023-01-29T01:48:25.968Z,26.55
2023-01-29T01:49:06.992Z,26.53
2023-01-29T01:49:39.392Z,26.49
2023-01-29T01:50:16.074Z,26.48
2023-01-29T01:51:03.357Z,26.46
2023-01-29T01:51:43.831Z,26.50
2023-01-29T01:52:18.397Z,26.45
2023-01-29T01:52:54.934Z,26.36
2023-01-29T01:53:34.577Z,26.39
2023-01-29T01:54:28.391Z,26.49
2023-01-29T01:55:01.762Z,26.53
2023-01-29T01:55:39.178Z,26.41
2023-01-29T01:56:16.250Z,26.42
2023-01-29T01:56:54.302Z,26.51
2023-01-29T01:57:28.427Z,26.48
2023-01-29T01:58:10.427Z,26.52
2023-01-29T01:58:56.334Z,26.61
2023-01-29T01:59:28.827Z,26.72
2023-01-29T02:00:11.295Z,26.65
2023-01-29T02:00:43.873Z,26.58
2023-01-29T02:01:16.830Z,26.57
2023-01-29T02:01:52.311Z,26.52
2023-01-29T02:02:43.867Z,26.60
2023-01-29T02:03:35.999Z,26.52
2023-01-29T02:04:43.874Z,26.50
2023-01-29T02:05:34.705Z,26.55
2023-01-29T02:06:26.055Z,26.54
2023-01-29T02:07:18.690Z,26.58
2023-01-29T02:08:10.327Z,26.47
2023-01-29T02:09:22.554Z,26.53
2023-01-29T02:10:00.445Z,26.45
2023-01-29T02:10:47.308Z,26.44
2023-01-29T02:11:20.035Z,26.46
2023-01-29T02:11:52.570Z,26.47
2023-01-29T02:12:25.003Z,26.48
2023-01-29T02:12:57.503Z,26.47
2023-01-29T02:13:29.917Z,26.54
2023-01-29T02:14:02.312Z,26.53
2023-01-29T02:14:40.299Z,26.57
2023-01-29T02:15:13.614Z,26.59
2023-01-29T02:15:48.729Z,26.76
2023-01-29T02:16:22.931Z,26.60
2023-01-29T02:16:55.584Z,26.50
2023-01-29T02:17:27.997Z,26.62
2023-01-29T02:18:00.851Z,26.51
2023-01-29T02:18:38.058Z,26.55
2023-01-29T02:19:29.049Z,26.53
2023-01-29T02:20:13.120Z,26.47
2023-01-29T02:21:10.948Z,26.44
2023-01-29T02:21:45.853Z,26.44
2023-01-29T02:22:30.624Z,26.49
2023-01-29T02:23:27.173Z,26.48
2023-01-29T02:24:12.542Z,26.47
2023-01-29T02:24:55.747Z,26.41
2023-01-29T02:25:46.769Z,26.57
2023-01-29T02:26:38.386Z,26.53
2023-01-29T02:27:17.184Z,26.49
2023-01-29T02:27:49.611Z,26.43
2023-01-29T02:28:33.820Z,26.50
2023-01-29T02:29:33.733Z,26.53
2023-01-29T02:30:34.852Z,26.53
2023-01-29T02:31:20.779Z,26.60
2023-01-29T02:32:19.712Z,26.60
2023-01-29T02:33:22.451Z,26.57
2023-01-29T02:33:57.562Z,26.58
2023-01-29T02:35:06.942Z,26.40
2023-01-29T02:35:43.302Z,26.39
2023-01-29T02:36:47.719Z,26.51
2023-01-29T02:37:27.361Z,26.46
2023-01-29T02:38:05.929Z,26.40
2023-01-29T02:39:18.728Z,26.30
2023-01-29T02:40:24.211Z,26.43
2023-01-29T02:41:00.575Z,26.46
2023-01-29T02:41:41.209Z,26.43
2023-01-29T02:42:30.839Z,26.41
2023-01-29T02:43:10.436Z,26.49
2023-01-29T02:43:49.384Z,26.46
2023-01-29T02:44:33.855Z,26.46
2023-01-29T02:45:19.326Z,26.49
2023-01-29T02:46:09.901Z,26.51
2023-01-29T02:47:09.996Z,26.58
2023-01-29T02:47:45.469Z,26.59
2023-01-29T02:48:21.734Z,26.63
2023-01-29T02:49:03.478Z,26.44
2023-01-29T02:49:42.050Z,26.47
2023-01-29T02:50:34.138Z,26.47
2023-01-29T02:51:13.538Z,26.47
2023-01-29T02:51:56.435Z,26.46
2023-01-29T02:52:39.097Z,26.49
2023-01-29T02:53:26.871Z,26.51
2023-01-29T02:54:31.577Z,26.47
2023-01-29T02:55:16.713Z,26.29
2023-01-29T02:56:19.204Z,26.37
2023-01-29T02:57:00.499Z,26.44
2023-01-29T02:57:37.298Z,26.45
2023-01-29T02:58:20.911Z,26.46
2023-01-29T02:59:03.072Z,26.36
2023-01-29T02:59:41.803Z,26.45
2023-01-29T03:00:30.891Z,26.40
2023-01-29T03:01:13.524Z,26.54
2023-01-29T03:01:50.228Z,26.50
2023-01-29T03:02:30.212Z,26.63
2023-01-29T03:03:21.436Z,26.56
2023-01-29T03:03:59.585Z,26.67
2023-01-29T03:04:35.407Z,26.56
2023-01-29T03:05:12.828Z,26.55
2023-01-29T03:06:18.380Z,26.58
2023-01-29T03:06:56.235Z,26.47
2023-01-29T03:07:45.889Z,26.38
2023-01-29T03:08:24.172Z,26.47
2023-01-29T03:09:00.144Z,26.47
2023-01-29T03:09:32.475Z,26.40
2023-01-29T03:10:12.633Z,26.44
2023-01-29T03:10:52.277Z,26.41
2023-01-29T03:11:24.887Z,26.48
2023-01-29T03:12:20.014Z,26.48
2023-01-29T03:13:01.055Z,26.42
2023-01-29T03:13:41.760Z,26.49
2023-01-29T03:14:54.926Z,26.44
2023-01-29T03:15:32.167Z,26.44
2023-01-29T03:16:15.492Z,26.49
2023-01-29T03:16:51.183Z,26.49
2023-01-29T03:17:27.874Z,26.64
2023-01-29T03:18:09.989Z,26.56
2023-01-29T03:18:46.895Z,26.47
2023-01-29T03:19:24.802Z,26.47
2023-01-29T03:19:57.197Z,26.45
2023-01-29T03:20:38.279Z,26.51
2023-01-29T03:21:37.083Z,26.46
2023-01-29T03:22:12.328Z,26.52
2023-01-29T03:22:50.549Z,26.41
2023-01-29T03:23:45.042Z,26.48
2023-01-29T03:24:39.886Z,26.54
2023-01-29T03:25:33.574Z,26.51
2023-01-29T03:26:25.496Z,26.48
2023-01-29T03:27:18.344Z,26.44
2023-01-29T03:28:13.070Z,26.53
2023-01-29T03:29:06.215Z,26.45
2023-01-29T03:29:57.833Z,26.48
2023-01-29T03:30:52.744Z,26.48
2023-01-29T03:31:45.579Z,26.51
2023-01-29T03:32:21.144Z,26.47
2023-01-29T03:32:54.845Z,26.53
2023-01-29T03:33:32.556Z,26.67
2023-01-29T03:34:24.413Z,26.58
2023-01-29T03:35:01.798Z,26.51
2023-01-29T03:35:39.626Z,26.52
2023-01-29T03:36:24.269Z,26.42
2023-01-29T03:37:02.952Z,26.55
2023-01-29T03:37:43.040Z,26.51
2023-01-29T03:38:16.024Z,26.49
2023-01-29T03:38:48.402Z,26.47
2023-01-29T03:39:20.793Z,26.47
2023-01-29T03:39:53.200Z,26.43
2023-01-29T03:40:26.217Z,26.45
2023-01-29T03:41:23.426Z,26.39
2023-01-29T03:42:22.887Z,26.38
2023-01-29T03:43:18.371Z,26.45
2023-01-29T03:44:15.903Z,26.41
2023-01-29T03:44:54.474Z,26.39
2023-01-29T03:45:43.163Z,26.44
2023-01-29T03:46:31.923Z,26.46
2023-01-29T03:47:13.848Z,26.39
2023-01-29T03:47:46.230Z,26.43
2023-01-29T03:48:29.257Z,26.46
2023-01-29T03:49:19.437Z,26.55
2023-01-29T03:50:02.124Z,26.56
2023-01-29T03:50:48.831Z,26.62
2023-01-29T03:51:48.365Z,26.58
2023-01-29T03:52:43.601Z,26.58
2023-01-29T03:53:29.258Z,26.55
2023-01-29T03:54:22.327Z,26.35
2023-01-29T03:55:07.190Z,26.33
2023-01-29T03:56:22.075Z,26.34
2023-01-29T03:57:27.913Z,26.37
2023-01-29T03:58:22.786Z,26.33
2023-01-29T03:59:11.931Z,26.37
2023-01-29T03:59:49.771Z,26.43
2023-01-29T04:00:30.682Z,26.37
2023-01-29T04:01:12.921Z,26.36
2023-01-29T04:01:50.051Z,26.45
2023-01-29T04:02:31.295Z,26.43
2023-01-29T04:03:20.752Z,26.41
2023-01-29T04:04:00.551Z,26.41
2023-01-29T04:04:36.900Z,26.49
2023-01-29T04:05:19.733Z,26.53
2023-01-29T04:05:58.666Z,26.47
2023-01-29T04:06:34.745Z,26.65
2023-01-29T04:07:14.250Z,26.45
2023-01-29T04:07:49.415Z,26.57
2023-01-29T04:08:28.112Z,26.51
2023-01-29T04:09:10.988Z,26.55
2023-01-29T04:09:48.499Z,26.47
2023-01-29T04:10:26.364Z,26.46
2023-01-29T04:11:02.847Z,26.42
2023-01-29T04:11:39.172Z,26.45
2023-01-29T04:12:13.432Z,26.50
2023-01-29T04:12:54.675Z,26.41
2023-01-29T04:13:30.085Z,26.39
2023-01-29T04:14:03.096Z,26.33
2023-01-29T04:14:35.885Z,26.37
2023-01-29T04:15:12.346Z,26.42
2023-01-29T04:15:50.098Z,26.36
2023-01-29T04:16:27.932Z,26.43
2023-01-29T04:17:04.975Z,26.36
2023-01-29T04:17:44.047Z,26.37
2023-01-29T04:18:16.499Z,26.40
2023-01-29T04:18:49.536Z,26.43
2023-01-29T04:19:21.995Z,26.35
2023-01-29T04:19:54.900Z,26.39
2023-01-29T04:20:27.659Z,26.51
2023-01-29T04:21:02.201Z,26.43
2023-01-29T04:21:37.596Z,26.48
2023-01-29T04:22:32.477Z,26.49
2023-01-29T04:23:07.789Z,26.40
2023-01-29T04:23:40.195Z,26.36
2023-01-29T04:24:14.660Z,26.42
2023-01-29T04:24:48.199Z,26.35
2023-01-29T04:25:28.893Z,26.30
2023-01-29T04:26:15.647Z,26.40
2023-01-29T04:27:29.171Z,26.31
2023-01-29T04:28:08.671Z,26.35
2023-01-29T04:29:04.148Z,26.28
2023-01-29T04:29:42.259Z,26.33
2023-01-29T04:31:14.136Z,26.40
2023-01-29T04:31:54.517Z,26.38
2023-01-29T04:32:53.016Z,26.36
2023-01-29T04:33:31.160Z,26.33
2023-01-29T04:34:21.539Z,26.30
2023-01-29T04:35:13.566Z,26.35
2023-01-29T04:35:45.951Z,26.35
2023-01-29T04:36:31.675Z,26.41
2023-01-29T04:37:13.436Z,26.53
2023-01-29T04:38:02.586Z,26.45
2023-01-29T04:38:59.371Z,26.60
2023-01-29T04:39:50.552Z,26.41
2023-01-29T04:40:44.670Z,26.45
2023-01-29T04:41:27.112Z,26.34
2023-01-29T04:41:59.508Z,26.45
2023-01-29T04:42:38.467Z,26.40
2023-01-29T04:43:20.692Z,26.33
2023-01-29T04:44:35.224Z,26.39
2023-01-29T04:45:48.791Z,26.35
2023-01-29T04:46:29.974Z,26.31
2023-01-29T04:47:11.308Z,26.35
2023-01-29T04:48:07.712Z,26.31
2023-01-29T04:49:01.708Z,26.41
2023-01-29T04:49:46.771Z,26.37
2023-01-29T04:50:36.348Z,26.43
2023-01-29T04:51:18.831Z,26.28
2023-01-29T04:52:16.883Z,26.31
2023-01-29T04:52:54.885Z,26.49
2023-01-29T04:53:41.491Z,26.44
2023-01-29T04:54:29.490Z,26.50
2023-01-29T04:55:32.527Z,26.43
2023-01-29T04:56:28.437Z,26.36
2023-01-29T04:57:17.266Z,26.45
2023-01-29T04:58:00.595Z,26.14
2023-01-29T04:58:48.523Z,26.32
2023-01-29T04:59:30.034Z,26.39
2023-01-29T05:00:30.636Z,26.27
2023-01-29T05:01:06.839Z,26.35
2023-01-29T05:01:39.800Z,26.33
2023-01-29T05:02:13.419Z,26.37
2023-01-29T05:02:46.579Z,26.29
2023-01-29T05:03:19.837Z,26.32
2023-01-29T05:03:55.377Z,26.25
2023-01-29T05:04:31.273Z,26.32
2023-01-29T05:05:06.160Z,26.28
2023-01-29T05:05:42.912Z,26.28
2023-01-29T05:06:17.088Z,26.34
2023-01-29T05:06:50.642Z,26.31
2023-01-29T05:07:25.309Z,26.31
2023-01-29T05:07:58.768Z,26.44
2023-01-29T05:08:32.888Z,26.45
2023-01-29T05:09:05.816Z,26.45
2023-01-29T05:09:40.316Z,26.40
2023-01-29T05:10:15.374Z,26.36
2023-01-29T05:10:50.786Z,26.40
2023-01-29T05:11:25.143Z,26.39
2023-01-29T05:11:57.955Z,26.38
2023-01-29T05:12:32.007Z,26.42
2023-01-29T05:13:07.775Z,26.42
2023-01-29T05:13:42.729Z,26.33
2023-01-29T05:14:18.136Z,26.40
2023-01-29T05:14:52.610Z,26.40
2023-01-29T05:15:43.171Z,26.39
2023-01-29T05:16:20.493Z,26.35
2023-01-29T05:16:54.530Z,26.31
2023-01-29T05:17:26.923Z,26.36
2023-01-29T05:18:02.908Z,26.40
2023-01-29T05:18:35.789Z,26.43
2023-01-29T05:19:13.440Z,26.38
2023-01-29T05:19:47.029Z,26.38
2023-01-29T05:20:19.444Z,26.37
2023-01-29T05:20:52.552Z,26.38
2023-01-29T05:21:25.630Z,26.32
2023-01-29T05:21:59.097Z,26.41
2023-01-29T05:22:31.947Z,26.45
2023-01-29T05:23:04.891Z,26.42
2023-01-29T05:23:37.991Z,26.55
2023-01-29T05:24:30.815Z,26.49
2023-01-29T05:25:03.300Z,26.53
2023-01-29T05:25:35.700Z,26.49
2023-01-29T05:26:08.085Z,26.48
2023-01-29T05:26:59.435Z,26.42
2023-01-29T05:27:54.544Z,26.38
2023-01-29T05:28:26.916Z,26.43
2023-01-29T05:28:59.351Z,26.35
2023-01-29T05:29:31.756Z,26.29
2023-01-29T05:30:04.626Z,26.34
2023-01-29T05:30:39.351Z,26.34
2023-01-29T05:31:12.069Z,26.27
2023-01-29T05:31:45.507Z,26.31
2023-01-29T05:32:18.005Z,26.38
2023-01-29T05:32:50.405Z,26.32
2023-01-29T05:33:28.429Z,26.23
2023-01-29T05:34:00.855Z,26.29
2023-01-29T05:34:34.272Z,26.38
2023-01-29T05:35:07.298Z,26.31
2023-01-29T05:35:39.792Z,26.32
2023-01-29T05:36:12.155Z,26.24
2023-01-29T05:36:44.604Z,26.26
2023-01-29T05:37:16.987Z,26.29
2023-01-29T05:37:49.381Z,26.29
2023-01-29T05:38:22.026Z,26.23
2023-01-29T05:38:54.392Z,26.27
2023-01-29T05:39:26.776Z,26.28
2023-01-29T05:39:59.132Z,26.44
2023-01-29T05:40:31.645Z,26.44
2023-01-29T05:41:04.020Z,26.36
2023-01-29T05:41:36.466Z,26.33
2023-01-29T05:42:09.065Z,26.54
2023-01-29T05:42:41.959Z,26.39
2023-01-29T05:43:25.476Z,26.36
2023-01-29T05:43:57.866Z,26.36
2023-01-29T05:44:30.299Z,26.46
2023-01-29T05:45:02.721Z,26.29
2023-01-29T05:45:35.133Z,26.34
2023-01-29T05:46:07.565Z,26.33
2023-01-29T05:46:40.376Z,26.21
2023-01-29T05:47:12.887Z,26.27
2023-01-29T05:47:46.145Z,26.31
2023-01-29T05:48:18.517Z,26.34
2023-01-29T05:48:53.592Z,26.28
2023-01-29T05:49:26.072Z,26.28
2023-01-29T05:49:58.476Z,26.23
2023-01-29T05:50:30.862Z,26.25
2023-01-29T05:51:04.995Z,26.38
2023-01-29T05:51:37.366Z,26.33
2023-01-29T05:52:09.792Z,26.30
2023-01-29T05:52:42.691Z,26.38
2023-01-29T05:53:15.292Z,26.31
2023-01-29T05:53:47.655Z,26.28
2023-01-29T05:54:20.683Z,26.32
2023-01-29T05:54:53.058Z,26.33
2023-01-29T05:55:25.448Z,26.32
2023-01-29T05:55:57.855Z,26.37
2023-01-29T05:56:30.246Z,26.36
2023-01-29T05:57:02.623Z,26.39
2023-01-29T05:57:34.987Z,26.29
2023-01-29T05:58:07.371Z,26.52
2023-01-29T05:58:40.482Z,26.38
2023-01-29T05:59:13.375Z,26.42
2023-01-29T05:59:45.806Z,26.36
2023-01-29T06:00:18.807Z,26.30
2023-01-29T06:00:51.299Z,26.31
2023-01-29T06:01:25.636Z,26.16
2023-01-29T06:01:58.940Z,26.27
2023-01-29T06:02:31.743Z,26.27
2023-01-29T06:03:04.270Z,26.25
2023-01-29T06:03:36.706Z,26.30
2023-01-29T06:04:09.845Z,26.29
2023-01-29T06:04:42.238Z,26.35
2023-01-29T06:05:14.687Z,26.27
2023-01-29T06:05:47.089Z,26.28
2023-01-29T06:06:19.524Z,26.21
2023-01-29T06:06:51.919Z,26.26
2023-01-29T06:07:24.317Z,26.17
2023-01-29T06:07:56.885Z,26.20
2023-01-29T06:08:29.273Z,26.20
2023-01-29T06:09:01.663Z,26.24
2023-01-29T06:09:34.073Z,26.36
2023-01-29T06:10:07.404Z,26.32
2023-01-29T06:10:39.817Z,26.22
2023-01-29T06:11:14.108Z,26.31
2023-01-29T06:11:46.537Z,26.44
2023-01-29T06:12:19.035Z,26.50
2023-01-29T06:12:51.421Z,26.51
2023-01-29T06:13:23.856Z,26.33
2023-01-29T06:13:56.243Z,26.36
2023-01-29T06:14:28.646Z,26.26
2023-01-29T06:15:01.057Z,26.20
2023-01-29T06:15:33.485Z,26.24
2023-01-29T06:16:07.415Z,26.23
2023-01-29T06:16:39.833Z,26.18
2023-01-29T06:17:12.235Z,26.18
2023-01-29T06:17:44.673Z,26.21
2023-01-29T06:18:17.230Z,26.29
2023-01-29T06:18:49.663Z,26.21
2023-01-29T06:19:22.104Z,26.25
2023-01-29T06:19:54.493Z,26.26
2023-01-29T06:20:27.663Z,26.23
2023-01-29T06:21:03.974Z,26.21
2023-01-29T06:21:36.359Z,26.29
2023-01-29T06:22:08.742Z,26.30
2023-01-29T06:22:41.126Z,26.25
2023-01-29T06:23:13.534Z,26.18
2023-01-29T06:23:45.942Z,26.20
2023-01-29T06:24:18.371Z,26.22
2023-01-29T06:24:50.775Z,26.29
2023-01-29T06:25:23.187Z,26.37
2023-01-29T06:26:00.961Z,26.42
2023-01-29T06:26:33.370Z,26.21
2023-01-29T06:27:05.752Z,26.38
2023-01-29T06:27:38.141Z,26.42
2023-01-29T06:28:10.571Z,26.53
2023-01-29T06:28:45.175Z,26.49
2023-01-29T06:29:17.561Z,26.34
2023-01-29T06:29:49.975Z,26.35
2023-01-29T06:30:22.399Z,26.24
2023-01-29T06:31:05.445Z,26.36
2023-01-29T06:31:44.685Z,26.37
2023-01-29T06:32:17.237Z,26.33
2023-01-29T06:32:49.651Z,26.34
2023-01-29T06:33:22.027Z,26.27
2023-01-29T06:33:54.410Z,26.25
2023-01-29T06:34:26.792Z,26.34
2023-01-29T06:34:59.151Z,26.27
2023-01-29T06:35:31.546Z,26.31
2023-01-29T06:36:05.841Z,26.29
2023-01-29T06:36:38.247Z,26.19
2023-01-29T06:37:10.648Z,26.22
2023-01-29T06:37:43.051Z,26.27
2023-01-29T06:38:15.483Z,26.14
2023-01-29T06:38:47.915Z,26.18
2023-01-29T06:39:20.276Z,26.37
2023-01-29T06:39:52.675Z,26.26
2023-01-29T06:40:25.211Z,26.27
2023-01-29T06:40:58.170Z,26.30
2023-01-29T06:41:30.579Z,26.35
2023-01-29T06:42:03.045Z,26.35
2023-01-29T06:42:38.479Z,26.24
2023-01-29T06:43:10.843Z,26.44
2023-01-29T06:43:45.553Z,26.45
2023-01-29T06:44:18.008Z,26.47
2023-01-29T06:44:50.422Z,26.52
2023-01-29T06:45:22.931Z,26.48
2023-01-29T06:45:57.944Z,26.48
2023-01-29T06:46:30.444Z,26.39
2023-01-29T06:47:02.856Z,26.40
2023-01-29T06:47:35.276Z,26.38
2023-01-29T06:48:07.669Z,26.45
2023-01-29T06:48:40.083Z,26.32
2023-01-29T06:49:12.457Z,26.30
2023-01-29T06:49:44.853Z,26.35
2023-01-29T06:50:17.839Z,26.34
2023-01-29T06:50:50.602Z,26.33
2023-01-29T06:51:23.225Z,26.39
2023-01-29T06:51:55.616Z,26.35
2023-01-29T06:52:29.128Z,26.35
2023-01-29T06:53:01.572Z,26.44
2023-01-29T06:53:35.032Z,26.49
2023-01-29T06:54:08.445Z,26.40
2023-01-29T06:54:40.867Z,26.32
2023-01-29T06:55:13.262Z,26.34
2023-01-29T06:55:52.931Z,26.38
2023-01-29T06:56:25.669Z,26.36
2023-01-29T06:56:58.055Z,26.39
2023-01-29T06:57:30.680Z,26.37
2023-01-29T06:58:07.712Z,26.47
2023-01-29T06:58:40.298Z,26.48
2023-01-29T06:59:13.045Z,26.48
2023-01-29T06:59:45.402Z,26.49
2023-01-29T07:00:18.517Z,26.54
2023-01-29T07:00:51.205Z,26.67
2023-01-29T07:01:35.744Z,26.56
2023-01-29T07:02:08.689Z,26.43
2023-01-29T07:02:41.095Z,26.48
2023-01-29T07:03:13.648Z,26.35
2023-01-29T07:03:46.141Z,26.49
2023-01-29T07:04:18.529Z,26.43
2023-01-29T07:04:50.973Z,26.52
2023-01-29T07:05:23.351Z,26.49
2023-01-29T07:05:55.764Z,26.45
2023-01-29T07:06:29.905Z,26.45
2023-01-29T07:07:02.308Z,26.49
2023-01-29T07:07:37.043Z,26.37
2023-01-29T07:08:12.370Z,26.40
2023-01-29T07:08:44.804Z,26.43
2023-01-29T07:09:17.362Z,26.60
2023-01-29T07:09:49.748Z,26.47
2023-01-29T07:10:22.275Z,26.39
2023-01-29T07:11:00.285Z,26.42
2023-01-29T07:11:33.110Z,26.51
2023-01-29T07:12:05.520Z,26.58
2023-01-29T07:12:37.908Z,26.54
2023-01-29T07:13:10.290Z,26.51
2023-01-29T07:13:42.665Z,26.48
2023-01-29T07:14:15.064Z,26.52
2023-01-29T07:14:47.708Z,26.59
2023-01-29T07:15:21.413Z,26.60
2023-01-29T07:15:53.950Z,26.66
2023-01-29T07:16:26.669Z,26.67
2023-01-29T07:16:59.143Z,26.47
2023-01-29T07:17:31.522Z,26.56
2023-01-29T07:18:11.973Z,26.54
2023-01-29T07:18:44.381Z,26.50
2023-01-29T07:19:16.741Z,26.58
2023-01-29T07:19:49.143Z,26.54
2023-01-29T07:20:21.568Z,26.49
2023-01-29T07:20:53.939Z,26.52
2023-01-29T07:21:26.400Z,26.55
2023-01-29T07:22:02.342Z,26.55
2023-01-29T07:22:34.760Z,26.55
2023-01-29T07:23:07.644Z,26.60
2023-01-29T07:23:40.018Z,26.59
2023-01-29T07:24:12.441Z,26.54
2023-01-29T07:24:44.835Z,26.55
2023-01-29T07:25:17.299Z,26.61
2023-01-29T07:25:52.806Z,26.52
2023-01-29T07:26:25.225Z,26.56
2023-01-29T07:26:57.703Z,26.66
2023-01-29T07:27:30.179Z,26.68
2023-01-29T07:28:03.166Z,26.67
2023-01-29T07:28:39.284Z,26.68
2023-01-29T07:29:11.876Z,26.71
2023-01-29T07:29:44.239Z,26.60
2023-01-29T07:30:17.860Z,26.79
2023-01-29T07:30:51.049Z,26.59
2023-01-29T07:31:23.547Z,26.45
2023-01-29T07:31:56.076Z,26.55
2023-01-29T07:32:29.686Z,26.58
2023-01-29T07:33:05.206Z,26.47
2023-01-29T07:33:38.905Z,26.45
2023-01-29T07:34:11.427Z,26.33
2023-01-29T07:34:43.828Z,26.37
2023-01-29T07:35:16.236Z,26.43
2023-01-29T07:35:48.623Z,26.49
2023-01-29T07:36:21.034Z,26.45
2023-01-29T07:36:56.892Z,26.38
2023-01-29T07:37:29.379Z,26.33
2023-01-29T07:38:01.769Z,26.25
2023-01-29T07:38:34.156Z,26.31
2023-01-29T07:39:06.553Z,26.26
2023-01-29T07:39:38.957Z,26.23
2023-01-29T07:40:11.942Z,26.24
2023-01-29T07:40:44.985Z,26.28
2023-01-29T07:41:17.517Z,26.27
2023-01-29T07:41:50.091Z,26.30
2023-01-29T07:42:22.497Z,26.36
2023-01-29T07:43:02.139Z,26.25
2023-01-29T07:43:34.554Z,26.22
2023-01-29T07:44:06.949Z,26.19
2023-01-29T07:44:39.365Z,26.16
2023-01-29T07:45:12.715Z,26.15
2023-01-29T07:45:45.099Z,26.13
2023-01-29T07:46:17.551Z,26.15
2023-01-29T07:46:50.175Z,26.18
2023-01-29T07:47:22.607Z,26.18
2023-01-29T07:47:55.700Z,26.18
2023-01-29T07:48:28.087Z,26.18
2023-01-29T07:49:00.502Z,26.17
2023-01-29T07:49:32.910Z,26.17
2023-01-29T07:50:05.868Z,26.17
2023-01-29T07:50:38.491Z,26.17
2023-01-29T07:51:10.880Z,26.17
2023-01-29T07:51:43.339Z,26.15
2023-01-29T07:52:15.731Z,26.15
2023-01-29T07:52:48.191Z,26.15
2023-01-29T07:53:20.675Z,26.14
2023-01-29T07:53:53.435Z,26.12
2023-01-29T07:54:25.792Z,26.10
2023-01-29T07:54:58.233Z,26.08
2023-01-29T07:55:30.830Z,26.08
2023-01-29T07:56:03.428Z,26.08
2023-01-29T07:56:35.804Z,26.05
2023-01-29T07:57:08.220Z,26.04
2023-01-29T07:57:40.701Z,26.04
2023-01-29T07:58:13.466Z,26.02
2023-01-29T07:58:45.859Z,26.01
2023-01-29T07:59:18.258Z,25.98
2023-01-29T07:59:50.639Z,25.95
2023-01-29T08:00:23.394Z,25.95
2023-01-29T08:00:55.803Z,25.96
2023-01-29T08:01:28.187Z,25.93